Keysville, GA (30811)

7:04 PM EST on November 23, 2014 (GMT -0500)
Heatwole Family Allen Rd.,North Burke County | Change Station
CLOSE
Current Station
Personal Weather Station
Location: Hephzibah, GA
Elevation: 364 ft
Nearby Weather Stations

Elev 364 ft 33.19 °N, 82.02 °W | Updated 3 minutes ago

Rain
Rain
68.0 °F
Feels Like 68.0 °F
N
0.0
Wind Variable Wind from North
Gusts 0.0 mph

Today
High -- | Low -- °F
--% Chance of Precip.
Yesterday
High -- | Low -- °F
Precip. -- in
7:07 AM 5:23 PM
Waxing Crescent, 3% visible
Pressure 29.80 in
Visibility 10.0 miles
Clouds Mostly Cloudy 600 ft
Mostly Cloudy 1800 ft
Overcast 3200 ft
Dew Point 68 °F
Humidity 100%
Rainfall 1.69 in
Snow Depth Not available.
UV 0 out of 12
Pollen .30 out of 12
Air Quality Not available.
Flu Activity Not available.
METAR KAGS 232353Z 20011G16KT 10SM -RA BKN006 BKN018 OVC032 20/19 A2980 RMK AO2 LTG DSNT E-SW RAB2254 CIG 005V012 PRESRR SLP091 P0007 60036 T02000189 10200 20156 55004

More Conditions Fewer Conditions

Pressure 29.80 in
Visibility 10.0 miles
Clouds Mostly Cloudy 600 ft
Mostly Cloudy 1800 ft
Overcast 3200 ft
Dew Point 68 °F
Humidity 100%
Rainfall 1.69 in
Snow Depth Not available.
UV 0 out of 12
Pollen .30 out of 12
Air Quality Not available.
Flu Activity Not available.
METAR KAGS 232353Z 20011G16KT 10SM -RA BKN006 BKN018 OVC032 20/19 A2980 RMK AO2 LTG DSNT E-SW RAB2254 CIG 005V012 PRESRR SLP091 P0007 60036 T02000189 10200 20156 55004

More Conditions Fewer Conditions

10-Day Weather Forecast

Almanac

Astronomy

Nov. 23, 2014 Rise Set
Actual Time
Civil Twilight
Nautical Twilight
Astronomical Twilight
Moon
Length of Visible Light
Length of Day
Tomorrow will be .
, % of the Moon is Illuminated

Today's Extremes

State Highs State Lows

Community

WunderPhotos

Upload Photos

1,773,215 photos uploaded!

WunderBlogs® & News

Nearby

Air Quality

  Air Quality AQ Index Pollutant
Not available.

Snow Depth

Station Depth Elevation

Earthquake Activity

City Distance Mag. Time & Date
Minimum magnitude displayed is 2.5.

Coastal Water Temperatures

Place Temperature

Nearby Weather Stations